Time;durP1;ratioP1;P1;durP2;ratioP2;P2;SDS_P1;SDS_P2;PMS_P1;PMS_P2;Temp;Humidity;BMP_temperature;BMP_pressure;BME280_temperature;BME280_humidity;BME280_pressure;Samples;Min_cycle;Max_cycle;Signal;HPM_P1;HPM_P2
2024/04/07 00:01:40;;;;;;;8.13;2.00;;;;;;;;;;5074748;28;20074;-60
2024/04/07 00:04:05;;;;;;;6.43;1.80;;;;;;;;;;5074884;28;20086;-59
2024/04/07 00:06:31;;;;;;;6.38;2.05;;;;;;;;;;5074618;28;20027;-59
2024/04/07 00:08:56;;;;;;;5.35;1.70;;;;;;;;;;5075432;28;20024;-59
2024/04/07 00:11:21;;;;;;;10.55;2.00;;;;;;;;;;5074558;28;20095;-60
2024/04/07 00:13:46;;;;;;;15.32;2.00;;;;;;;;;;5074446;28;20036;-59
2024/04/07 00:16:12;;;;;;;5.47;2.20;;;;;;;;;;5074528;28;20430;-58
2024/04/07 00:18:38;;;;;;;9.13;2.00;;;;;;;;;;5074430;28;20020;-57
2024/04/07 00:21:03;;;;;;;9.82;2.33;;;;;;;;;;5074417;28;20433;-60
2024/04/07 00:23:29;;;;;;;7.78;1.90;;;;;;;;;;5074442;28;20331;-59
2024/04/07 00:25:55;;;;;;;8.15;1.95;;;;;;;;;;5056835;28;20028;-59
2024/04/07 00:28:20;;;;;;;5.75;2.13;;;;;;;;;;5074657;28;20052;-60
2024/04/07 00:30:45;;;;;;;10.88;2.35;;;;;;;;;;5074636;28;20031;-60
2024/04/07 00:33:10;;;;;;;9.23;2.03;;;;;;;;;;5074281;28;20029;-60
2024/04/07 00:35:36;;;;;;;8.88;1.83;;;;;;;;;;5074338;28;20433;-59
2024/04/07 00:38:01;;;;;;;10.80;1.95;;;;;;;;;;5074469;28;20454;-59
2024/04/07 00:40:26;;;;;;;9.88;2.63;;;;;;;;;;5074325;28;20021;-60
2024/04/07 00:42:52;;;;;;;7.05;2.20;;;;;;;;;;5074645;28;20043;-59
2024/04/07 00:45:17;;;;;;;7.75;2.33;;;;;;;;;;5056590;28;20024;-59
2024/04/07 00:47:43;;;;;;;9.15;2.28;;;;;;;;;;5074297;28;20356;-60
2024/04/07 00:50:08;;;;;;;6.45;2.40;;;;;;;;;;5074135;28;20054;-59
2024/04/07 00:52:33;;;;;;;5.25;2.00;;;;;;;;;;5077536;28;20483;-58
2024/04/07 00:55:01;;;;;;;7.10;2.65;;;;;;;;;;5078170;28;20020;-58
2024/04/07 00:57:27;;;;;;;6.72;2.13;;;;;;;;;;5078709;28;20071;-59
2024/04/07 00:59:53;;;;;;;13.38;2.50;;;;;;;;;;5078678;28;20013;-60
2024/04/07 01:02:19;;;;;;;9.45;2.20;;;;;;;;;;5078242;28;20502;-59
2024/04/07 01:04:44;;;;;;;6.25;2.10;;;;;;;;;;5077982;28;20115;-60
2024/04/07 01:07:09;;;;;;;8.05;2.05;;;;;;;;;;5078058;28;20060;-59
2024/04/07 01:09:35;;;;;;;10.05;2.22;;;;;;;;;;5078094;28;20025;-60
2024/04/07 01:12:09;;;;;;;11.80;2.50;;;;;;;;;;5060411;28;20353;-59
2024/04/07 01:14:34;;;;;;;12.10;2.30;;;;;;;;;;5077860;28;20040;-59
2024/04/07 01:16:59;;;;;;;9.68;2.20;;;;;;;;;;5077840;28;20507;-58
2024/04/07 01:19:25;;;;;;;8.52;2.40;;;;;;;;;;5078007;28;20030;-57
2024/04/07 01:21:50;;;;;;;6.20;1.90;;;;;;;;;;5077517;28;20023;-59
2024/04/07 01:24:15;;;;;;;12.10;2.30;;;;;;;;;;5077640;28;20020;-58
2024/04/07 01:26:40;;;;;;;9.30;2.20;;;;;;;;;;5077645;28;20348;-59
2024/04/07 01:29:06;;;;;;;9.23;2.25;;;;;;;;;;5077885;28;20077;-59
2024/04/07 01:31:31;;;;;;;11.80;2.20;;;;;;;;;;5077574;28;20043;-59
2024/04/07 01:33:56;;;;;;;7.22;2.17;;;;;;;;;;5077355;28;20415;-58
2024/04/07 01:36:22;;;;;;;9.65;2.40;;;;;;;;;;5077708;28;20086;-57
2024/04/07 01:38:47;;;;;;;7.18;2.38;;;;;;;;;;5077487;28;20028;-58
2024/04/07 01:41:12;;;;;;;9.75;2.50;;;;;;;;;;5077497;28;20108;-60
2024/04/07 01:43:37;;;;;;;8.43;2.20;;;;;;;;;;5077233;28;20475;-60
2024/04/07 01:46:03;;;;;;;6.80;2.53;;;;;;;;;;5077222;28;20126;-58
2024/04/07 01:48:28;;;;;;;7.78;2.35;;;;;;;;;;5077190;28;20438;-59
2024/04/07 01:50:54;;;;;;;9.77;2.85;;;;;;;;;;5077079;28;20047;-59
2024/04/07 01:53:19;;;;;;;8.57;2.10;;;;;;;;;;5076940;28;20027;-59
2024/04/07 01:55:44;;;;;;;8.43;2.38;;;;;;;;;;5077005;28;20020;-59
2024/04/07 01:58:09;;;;;;;8.48;2.08;;;;;;;;;;5076992;28;20017;-59
2024/04/07 02:00:35;;;;;;;6.90;1.88;;;;;;;;;;5076899;28;20017;-59
2024/04/07 02:03:00;;;;;;;10.48;2.35;;;;;;;;;;5077301;28;20028;-59
2024/04/07 02:05:26;;;;;;;12.68;2.40;;;;;;;;;;5077302;28;20036;-59
2024/04/07 02:07:51;;;;;;;8.93;2.65;;;;;;;;;;5077321;28;20036;-58
2024/04/07 02:10:16;;;;;;;12.70;2.08;;;;;;;;;;5076709;28;20415;-58
2024/04/07 02:12:41;;;;;;;9.10;2.10;;;;;;;;;;5059129;28;20441;-59
2024/04/07 02:15:07;;;;;;;5.45;1.92;;;;;;;;;;5076528;28;20107;-59
2024/04/07 02:17:35;;;;;;;10.35;2.13;;;;;;;;;;5076460;28;20345;-60
2024/04/07 02:20:00;;;;;;;11.60;2.70;;;;;;;;;;5076690;28;20096;-60
2024/04/07 02:22:26;;;;;;;10.35;2.10;;;;;;;;;;5076737;28;20095;-60
2024/04/07 02:24:51;;;;;;;9.98;2.15;;;;;;;;;;5076478;28;20060;-59
2024/04/07 02:27:17;;;;;;;11.30;2.13;;;;;;;;;;5076275;28;20013;-60
2024/04/07 02:29:44;;;;;;;14.55;2.95;;;;;;;;;;5059087;28;20177;-59
2024/04/07 02:32:09;;;;;;;12.57;2.65;;;;;;;;;;5076686;28;20017;-60
2024/04/07 02:34:34;;;;;;;10.23;2.05;;;;;;;;;;5076056;28;20077;-58
2024/04/07 02:37:00;;;;;;;11.65;2.40;;;;;;;;;;5076346;28;20008;-59
2024/04/07 02:39:25;;;;;;;11.25;2.30;;;;;;;;;;5076030;28;20024;-59
2024/04/07 02:41:51;;;;;;;9.25;2.30;;;;;;;;;;5075995;28;20150;-59
2024/04/07 02:44:16;;;;;;;11.43;2.25;;;;;;;;;;5075901;28;20017;-59
2024/04/07 02:49:28;;;;;;;8.00;2.10;;;;;;;;;;5076030;28;20031;-59
2024/04/07 02:51:53;;;;;;;11.98;2.33;;;;;;;;;;5074751;28;20017;-59
2024/04/07 02:54:19;;;;;;;12.55;2.17;;;;;;;;;;5057990;28;20078;-57
2024/04/07 02:56:44;;;;;;;11.45;2.75;;;;;;;;;;5075665;28;20422;-59
2024/04/07 02:59:09;;;;;;;14.63;2.70;;;;;;;;;;5075569;28;20028;-59
2024/04/07 03:01:36;;;;;;;10.38;2.38;;;;;;;;;;5083031;22;20128;-87
2024/04/07 03:04:03;;;;;;;7.32;2.00;;;;;;;;;;5038623;28;20112;-88
2024/04/07 03:06:29;;;;;;;10.10;2.10;;;;;;;;;;5055933;28;20029;-88
2024/04/07 03:08:57;;;;;;;9.68;2.22;;;;;;;;;;5038953;28;20364;-88
2024/04/07 03:11:23;;;;;;;11.45;2.30;;;;;;;;;;5055240;28;20029;-87
2024/04/07 03:13:48;;;;;;;7.63;2.28;;;;;;;;;;5037543;28;20054;-87
2024/04/07 03:16:14;;;;;;;6.20;2.10;;;;;;;;;;5055989;28;20060;-87
2024/04/07 03:18:41;;;;;;;12.68;2.28;;;;;;;;;;5038490;28;20178;-87
2024/04/07 03:21:08;;;;;;;9.40;2.28;;;;;;;;;;5038112;28;20021;-87
2024/04/07 03:23:34;;;;;;;9.93;2.80;;;;;;;;;;5055843;28;20110;-87
2024/04/07 03:26:01;;;;;;;8.70;2.30;;;;;;;;;;5038262;28;20021;-87
2024/04/07 03:28:27;;;;;;;9.63;2.22;;;;;;;;;;5055780;28;20315;-87
2024/04/07 03:30:54;;;;;;;12.40;2.33;;;;;;;;;;5056113;28;20025;-87
2024/04/07 03:33:19;;;;;;;11.55;2.78;;;;;;;;;;5055546;28;20438;-87
2024/04/07 03:35:45;;;;;;;8.35;2.67;;;;;;;;;;5038019;28;20028;-87
2024/04/07 03:38:12;;;;;;;10.20;2.70;;;;;;;;;;5056114;28;20017;-87
2024/04/07 03:40:38;;;;;;;9.43;2.70;;;;;;;;;;5055663;28;20021;-87
2024/04/07 03:43:05;;;;;;;8.88;2.40;;;;;;;;;;5037956;28;20020;-87
2024/04/07 03:45:32;;;;;;;9.20;2.70;;;;;;;;;;5038015;28;20078;-87
2024/04/07 03:47:58;;;;;;;11.38;2.50;;;;;;;;;;5037918;28;20032;-87
2024/04/07 03:50:24;;;;;;;9.90;2.90;;;;;;;;;;5037721;28;20442;-87
2024/04/07 03:52:50;;;;;;;12.18;2.50;;;;;;;;;;5037872;28;20358;-87
2024/04/07 03:55:16;;;;;;;9.88;2.70;;;;;;;;;;5037973;28;20017;-87
2024/04/07 03:57:42;;;;;;;8.93;3.10;;;;;;;;;;5037720;28;20013;-87
2024/04/07 04:00:08;;;;;;;12.15;2.60;;;;;;;;;;5055659;28;20342;-87
2024/04/07 04:02:35;;;;;;;12.20;3.08;;;;;;;;;;5062788;23;20041;-56
2024/04/07 04:05:05;;;;;;;8.55;2.20;;;;;;;;;;5054991;28;20031;-58
2024/04/07 04:07:31;;;;;;;11.88;2.47;;;;;;;;;;5055089;28;20032;-59
2024/04/07 04:09:59;;;;;;;11.48;3.05;;;;;;;;;;5055398;28;20029;-57
2024/04/07 04:12:28;;;;;;;10.52;2.90;;;;;;;;;;5054909;28;20055;-58
2024/04/07 04:14:54;;;;;;;13.93;2.70;;;;;;;;;;5054867;28;20029;-58
2024/04/07 04:17:20;;;;;;;11.70;2.58;;;;;;;;;;5055101;28;20017;-58
2024/04/07 04:19:45;;;;;;;10.00;3.05;;;;;;;;;;5054781;28;20155;-54
2024/04/07 04:22:12;;;;;;;10.40;2.60;;;;;;;;;;5054835;28;20024;-58
2024/04/07 04:24:38;;;;;;;11.10;2.78;;;;;;;;;;5054685;28;20051;-54
2024/04/07 04:27:04;;;;;;;6.75;2.03;;;;;;;;;;5053824;28;20021;-54
2024/04/07 04:29:30;;;;;;;7.15;2.30;;;;;;;;;;5054892;28;20032;-57
2024/04/07 04:31:57;;;;;;;9.75;2.72;;;;;;;;;;5054642;28;20442;-58
2024/04/07 04:34:23;;;;;;;11.73;2.83;;;;;;;;;;5054537;28;20464;-55
2024/04/07 04:36:49;;;;;;;7.25;2.33;;;;;;;;;;5054559;28;20013;-58
2024/04/07 04:39:14;;;;;;;8.60;2.58;;;;;;;;;;5054862;28;20380;-56
2024/04/07 04:41:41;;;;;;;7.55;2.42;;;;;;;;;;5054520;28;20075;-56
2024/04/07 04:44:06;;;;;;;12.52;3.35;;;;;;;;;;5054465;28;20096;-56
2024/04/07 04:46:32;;;;;;;11.80;2.50;;;;;;;;;;5054500;28;20048;-56
2024/04/07 04:48:57;;;;;;;13.90;2.97;;;;;;;;;;5053806;28;20024;-59
2024/04/07 04:51:22;;;;;;;10.57;2.70;;;;;;;;;;5054155;28;20025;-57
2024/04/07 04:53:47;;;;;;;8.65;2.70;;;;;;;;;;5054298;28;20028;-55
2024/04/07 04:56:12;;;;;;;13.75;2.92;;;;;;;;;;5054346;28;20020;-59
2024/04/07 04:58:38;;;;;;;8.75;2.95;;;;;;;;;;5054373;28;20013;-59
2024/04/07 05:01:13;;;;;;;38.05;8.23;;;;;;;;;;5054715;28;20020;-58
2024/04/07 05:03:38;;;;;;;10.55;3.03;;;;;;;;;;5054339;28;20047;-58
2024/04/07 05:06:11;;;;;;;11.38;2.67;;;;;;;;;;5034410;28;20453;-58
2024/04/07 05:08:37;;;;;;;13.88;2.85;;;;;;;;;;5034352;28;20036;-56
2024/04/07 05:11:03;;;;;;;12.27;2.60;;;;;;;;;;5045077;28;20025;-57
2024/04/07 05:13:28;;;;;;;11.07;2.90;;;;;;;;;;5054007;28;20021;-56
2024/04/07 05:15:54;;;;;;;10.60;3.10;;;;;;;;;;5054202;28;20438;-58
2024/04/07 05:18:19;;;;;;;13.00;3.28;;;;;;;;;;5054197;28;20035;-58
2024/04/07 05:20:44;;;;;;;7.72;2.35;;;;;;;;;;5053978;28;20333;-56
2024/04/07 05:23:09;;;;;;;11.10;3.05;;;;;;;;;;5053208;28;20032;-57
2024/04/07 05:25:34;;;;;;;10.55;2.70;;;;;;;;;;5054463;28;20021;-58
2024/04/07 05:27:59;;;;;;;10.27;2.65;;;;;;;;;;5054085;28;20068;-55
2024/04/07 05:30:25;;;;;;;10.40;2.83;;;;;;;;;;5053141;28;20128;-55
2024/04/07 05:32:50;;;;;;;10.18;2.60;;;;;;;;;;5053733;28;20100;-58
2024/04/07 05:35:15;;;;;;;11.40;2.63;;;;;;;;;;5054279;28;20031;-58
2024/04/07 05:37:40;;;;;;;9.93;2.75;;;;;;;;;;5055760;28;20096;-56
2024/04/07 05:40:06;;;;;;;14.65;2.78;;;;;;;;;;5057808;28;20100;-55
2024/04/07 05:42:31;;;;;;;6.32;2.35;;;;;;;;;;5057682;28;20446;-57
2024/04/07 05:44:56;;;;;;;6.65;2.42;;;;;;;;;;5057376;28;20028;-56
2024/04/07 05:47:22;;;;;;;11.63;2.35;;;;;;;;;;5057557;28;20105;-57
2024/04/07 05:49:47;;;;;;;13.98;2.50;;;;;;;;;;5057719;28;20021;-56
2024/04/07 05:52:13;;;;;;;10.43;2.60;;;;;;;;;;5057467;28;20032;-56
2024/04/07 05:54:38;;;;;;;9.38;2.42;;;;;;;;;;5057171;28;20013;-59
2024/04/07 05:57:03;;;;;;;8.65;2.17;;;;;;;;;;5057332;28;20025;-55
2024/04/07 05:59:28;;;;;;;7.15;2.08;;;;;;;;;;5057641;28;20434;-58
2024/04/07 06:01:54;;;;;;;9.70;2.80;;;;;;;;;;5057224;28;20033;-57
2024/04/07 06:04:19;;;;;;;8.15;2.30;;;;;;;;;;5057190;28;20400;-56
2024/04/07 06:06:44;;;;;;;6.78;2.10;;;;;;;;;;5056038;28;20357;-57
2024/04/07 06:09:09;;;;;;;9.38;2.55;;;;;;;;;;5057133;28;20086;-57
2024/04/07 06:11:36;;;;;;;7.75;2.10;;;;;;;;;;5057307;28;20335;-58
2024/04/07 06:14:01;;;;;;;9.88;2.47;;;;;;;;;;5056875;28;20071;-59
2024/04/07 06:16:26;;;;;;;8.85;2.08;;;;;;;;;;5057167;28;20025;-56
2024/04/07 06:18:51;;;;;;;9.52;2.00;;;;;;;;;;5056807;28;20039;-58
2024/04/07 06:21:19;;;;;;;7.13;1.90;;;;;;;;;;5057085;28;20024;-58
2024/04/07 06:23:44;;;;;;;6.55;1.75;;;;;;;;;;5057108;28;20045;-55
2024/04/07 06:26:09;;;;;;;9.07;2.20;;;;;;;;;;5056668;28;20114;-58
2024/04/07 06:28:35;;;;;;;7.20;1.80;;;;;;;;;;5056806;28;20113;-58
2024/04/07 06:31:01;;;;;;;6.30;2.05;;;;;;;;;;5056723;28;20028;-56
2024/04/07 06:33:27;;;;;;;6.22;2.05;;;;;;;;;;5056565;28;20434;-55
2024/04/07 06:35:52;;;;;;;10.15;2.10;;;;;;;;;;5056634;28;20086;-57
2024/04/07 06:38:17;;;;;;;7.95;1.85;;;;;;;;;;5056907;28;20451;-59
2024/04/07 06:40:43;;;;;;;7.35;2.10;;;;;;;;;;5056519;28;20104;-58
2024/04/07 06:43:08;;;;;;;9.30;2.33;;;;;;;;;;5056486;28;20354;-57
2024/04/07 06:45:33;;;;;;;11.73;2.38;;;;;;;;;;5056293;28;20021;-57
2024/04/07 06:47:58;;;;;;;7.63;1.92;;;;;;;;;;5056426;28;20029;-58
2024/04/07 06:50:23;;;;;;;10.30;2.22;;;;;;;;;;5055686;28;20025;-56
2024/04/07 06:52:49;;;;;;;6.35;1.92;;;;;;;;;;5056285;28;20024;-58
2024/04/07 06:55:14;;;;;;;13.32;2.75;;;;;;;;;;5056039;28;20017;-58
2024/04/07 06:57:39;;;;;;;12.05;3.10;;;;;;;;;;5056226;28;20021;-57
2024/04/07 07:00:05;;;;;;;9.65;2.20;;;;;;;;;;5056428;28;20028;-58
2024/04/07 07:02:30;;;;;;;7.63;2.00;;;;;;;;;;5056065;28;20040;-58
2024/04/07 07:04:55;;;;;;;10.50;2.33;;;;;;;;;;5055888;28;20037;-59
2024/04/07 07:07:20;;;;;;;10.43;2.28;;;;;;;;;;5055902;28;20048;-58
2024/04/07 07:09:45;;;;;;;8.88;2.30;;;;;;;;;;5055843;28;20417;-57
2024/04/07 07:12:11;;;;;;;10.25;2.47;;;;;;;;;;5055915;28;20021;-54
2024/04/07 07:14:37;;;;;;;9.43;2.10;;;;;;;;;;5055772;28;20468;-58
2024/04/07 07:17:02;;;;;;;7.88;2.15;;;;;;;;;;5055959;28;20456;-59
2024/04/07 07:19:28;;;;;;;9.45;2.30;;;;;;;;;;5055512;28;20013;-58
2024/04/07 07:21:53;;;;;;;10.82;2.50;;;;;;;;;;5055854;28;20028;-55
2024/04/07 07:24:18;;;;;;;8.07;2.40;;;;;;;;;;5054732;28;20533;-58
2024/04/07 07:26:43;;;;;;;12.77;2.53;;;;;;;;;;5055416;28;20029;-54
2024/04/07 07:29:08;;;;;;;9.55;2.20;;;;;;;;;;5055544;28;20017;-57
2024/04/07 07:31:34;;;;;;;8.05;1.90;;;;;;;;;;5054447;28;20021;-59
2024/04/07 07:33:59;;;;;;;7.13;2.45;;;;;;;;;;5055678;28;20096;-55
2024/04/07 07:36:24;;;;;;;7.90;1.80;;;;;;;;;;5056163;28;20024;-57
2024/04/07 07:38:50;;;;;;;7.85;2.13;;;;;;;;;;5055393;28;20020;-57
2024/04/07 07:41:18;;;;;;;5.13;1.75;;;;;;;;;;5055257;28;20442;-56
2024/04/07 07:43:43;;;;;;;9.48;2.22;;;;;;;;;;5055348;28;20056;-56
2024/04/07 07:46:08;;;;;;;8.77;2.47;;;;;;;;;;5054095;28;20117;-58
2024/04/07 07:48:37;;;;;;;8.50;2.00;;;;;;;;;;5055121;28;20379;-58
2024/04/07 07:51:03;;;;;;;8.48;2.22;;;;;;;;;;5055173;28;20033;-55
2024/04/07 07:53:31;;;;;;;7.50;1.98;;;;;;;;;;5055089;28;20110;-56
2024/04/07 07:55:57;;;;;;;7.28;2.05;;;;;;;;;;5054908;28;20494;-58
2024/04/07 07:58:22;;;;;;;10.15;2.38;;;;;;;;;;5055146;28;20112;-59
2024/04/07 08:00:47;;;;;;;8.13;3.40;;;;;;;;;;5054790;28;20426;-57
2024/04/07 08:03:12;;;;;;;15.68;2.67;;;;;;;;;;5055171;28;20025;-58
2024/04/07 08:05:38;;;;;;;13.77;2.20;;;;;;;;;;5055251;28;20449;-58
2024/04/07 08:08:03;;;;;;;9.50;2.30;;;;;;;;;;5054739;28;20086;-55
2024/04/07 08:10:28;;;;;;;11.73;2.65;;;;;;;;;;5054967;28;20442;-55
2024/04/07 08:12:53;;;;;;;9.25;1.90;;;;;;;;;;5054893;28;20029;-54
2024/04/07 08:15:19;;;;;;;8.65;2.28;;;;;;;;;;5055161;28;20346;-59
2024/04/07 08:17:44;;;;;;;6.85;2.05;;;;;;;;;;5054887;28;20431;-58
2024/04/07 08:20:09;;;;;;;9.88;2.10;;;;;;;;;;5054734;28;20170;-56
2024/04/07 08:22:34;;;;;;;9.70;2.08;;;;;;;;;;5054898;28;20146;-55
2024/04/07 08:25:00;;;;;;;7.20;1.58;;;;;;;;;;5054918;28;20116;-59
2024/04/07 08:27:25;;;;;;;11.13;2.10;;;;;;;;;;5054408;28;20025;-56
2024/04/07 08:29:50;;;;;;;8.43;2.20;;;;;;;;;;5054577;28;20103;-57
2024/04/07 08:32:17;;;;;;;6.88;1.85;;;;;;;;;;5054841;28;20074;-58
2024/04/07 08:34:43;;;;;;;7.35;2.05;;;;;;;;;;5054599;28;20032;-57
2024/04/07 08:37:09;;;;;;;8.88;2.25;;;;;;;;;;5054642;28;20017;-57
2024/04/07 08:39:34;;;;;;;6.72;1.77;;;;;;;;;;5054375;28;20017;-58
2024/04/07 08:42:00;;;;;;;10.55;2.03;;;;;;;;;;5054754;28;20104;-59
2024/04/07 08:44:25;;;;;;;7.72;2.05;;;;;;;;;;5054689;28;20047;-60
2024/04/07 08:46:51;;;;;;;6.25;1.75;;;;;;;;;;5054657;28;20040;-59
2024/04/07 08:49:17;;;;;;;6.13;1.80;;;;;;;;;;5054625;28;20025;-58
2024/04/07 08:51:45;;;;;;;8.07;2.55;;;;;;;;;;5054370;28;20173;-55
2024/04/07 08:54:10;;;;;;;9.27;1.98;;;;;;;;;;5054362;28;20035;-55
2024/04/07 08:56:37;;;;;;;5.57;1.85;;;;;;;;;;5054441;28;20045;-55
2024/04/07 08:59:03;;;;;;;4.47;1.85;;;;;;;;;;5054101;28;20063;-58
2024/04/07 09:01:31;;;;;;;6.20;1.95;;;;;;;;;;5054210;28;20111;-57
2024/04/07 09:04:00;;;;;;;7.55;1.92;;;;;;;;;;5054500;28;20025;-59
2024/04/07 09:06:28;;;;;;;8.70;1.83;;;;;;;;;;5054636;28;20028;-59
2024/04/07 09:08:57;;;;;;;6.15;2.40;;;;;;;;;;5054202;28;20088;-59
2024/04/07 09:11:26;;;;;;;7.35;1.70;;;;;;;;;;5054037;28;20028;-57
2024/04/07 09:13:51;;;;;;;6.05;2.00;;;;;;;;;;5057946;28;20032;-60
2024/04/07 09:16:17;;;;;;;7.63;1.80;;;;;;;;;;5058122;28;20544;-59
2024/04/07 09:18:42;;;;;;;4.55;1.60;;;;;;;;;;5057742;28;20127;-58
2024/04/07 09:21:21;;;;;;;8.45;1.90;;;;;;;;;;5057956;28;20016;-55
2024/04/07 09:23:49;;;;;;;8.77;1.85;;;;;;;;;;5058574;28;20338;-57
2024/04/07 09:26:14;;;;;;;4.70;1.42;;;;;;;;;;5057936;28;20409;-59
2024/04/07 09:28:39;;;;;;;5.55;1.35;;;;;;;;;;5057690;28;20074;-59
2024/04/07 09:31:05;;;;;;;6.88;1.40;;;;;;;;;;5057886;28;20025;-57
2024/04/07 09:33:31;;;;;;;5.53;1.60;;;;;;;;;;5057668;28;20029;-58
2024/04/07 09:35:58;;;;;;;6.22;1.73;;;;;;;;;;5057737;28;20013;-59
2024/04/07 09:38:24;;;;;;;5.93;1.60;;;;;;;;;;5057713;28;20017;-58
2024/04/07 09:40:50;;;;;;;6.68;1.30;;;;;;;;;;5057595;28;20494;-59
2024/04/07 09:43:15;;;;;;;8.25;1.30;;;;;;;;;;5057606;28;20357;-58
2024/04/07 09:45:42;;;;;;;7.18;1.27;;;;;;;;;;5057624;28;20027;-59
2024/04/07 09:48:09;;;;;;;3.45;1.23;;;;;;;;;;5057707;28;20086;-59
2024/04/07 09:50:38;;;;;;;6.40;1.40;;;;;;;;;;5057503;28;20017;-55
2024/04/07 09:53:08;;;;;;;3.70;1.15;;;;;;;;;;5057666;28;20071;-55
2024/04/07 09:55:35;;;;;;;4.38;1.10;;;;;;;;;;5057651;28;20392;-57
2024/04/07 09:58:03;;;;;;;4.63;1.13;;;;;;;;;;5057370;28;20454;-59
2024/04/07 10:00:29;;;;;;;7.10;1.30;;;;;;;;;;5057628;28;20445;-56
2024/04/07 10:02:55;;;;;;;4.15;1.13;;;;;;;;;;5057087;28;20036;-57
2024/04/07 10:05:21;;;;;;;3.92;1.02;;;;;;;;;;5057125;28;20017;-58
2024/04/07 10:07:47;;;;;;;5.88;1.20;;;;;;;;;;5057367;28;20040;-56
2024/04/07 10:10:12;;;;;;;5.13;1.65;;;;;;;;;;5057104;28;20043;-59
2024/04/07 10:12:37;;;;;;;3.28;1.20;;;;;;;;;;5056896;28;20009;-59
2024/04/07 10:15:03;;;;;;;5.38;1.00;;;;;;;;;;5056831;28;20464;-59
2024/04/07 10:17:30;;;;;;;6.28;1.40;;;;;;;;;;5056885;28;20017;-58
2024/04/07 10:19:56;;;;;;;4.15;1.25;;;;;;;;;;5056924;28;20021;-59
2024/04/07 10:22:22;;;;;;;4.40;1.27;;;;;;;;;;5056900;28;20047;-56
2024/04/07 10:24:48;;;;;;;5.25;1.00;;;;;;;;;;5055577;28;20025;-56
2024/04/07 10:27:13;;;;;;;4.80;1.10;;;;;;;;;;5056852;28;20307;-59
2024/04/07 10:29:40;;;;;;;6.85;1.40;;;;;;;;;;5056635;28;20032;-55
2024/04/07 10:32:38;;;;;;;4.63;1.20;;;;;;;;;;5056602;28;20021;-58
2024/04/07 10:35:04;;;;;;;5.72;1.50;;;;;;;;;;5055908;28;20456;-59
2024/04/07 10:37:30;;;;;;;6.95;1.05;;;;;;;;;;5056532;28;20047;-57
2024/04/07 10:39:56;;;;;;;2.92;1.08;;;;;;;;;;5056586;28;20029;-57
2024/04/07 10:42:21;;;;;;;3.90;1.20;;;;;;;;;;5056502;28;20057;-56
2024/04/07 10:44:46;;;;;;;6.90;1.50;;;;;;;;;;5056526;28;20021;-58
2024/04/07 10:47:11;;;;;;;3.40;1.02;;;;;;;;;;5056531;28;20087;-58
2024/04/07 10:49:37;;;;;;;6.80;1.23;;;;;;;;;;5056268;28;20032;-55
2024/04/07 10:52:02;;;;;;;3.67;1.05;;;;;;;;;;5056149;28;20025;-57
2024/04/07 10:54:30;;;;;;;5.03;1.55;;;;;;;;;;5056219;28;20037;-54
2024/04/07 10:56:56;;;;;;;8.50;1.40;;;;;;;;;;5056101;28;20044;-57
2024/04/07 10:59:21;;;;;;;10.30;1.75;;;;;;;;;;5056525;28;20122;-56
2024/04/07 11:01:47;;;;;;;4.90;1.30;;;;;;;;;;5055790;28;20086;-58
2024/04/07 11:04:12;;;;;;;5.60;1.42;;;;;;;;;;5056113;28;20025;-58
2024/04/07 11:06:37;;;;;;;6.45;1.50;;;;;;;;;;5055949;28;20418;-61
2024/04/07 11:09:03;;;;;;;5.35;1.20;;;;;;;;;;5056291;28;20359;-59
2024/04/07 11:11:29;;;;;;;5.63;1.45;;;;;;;;;;5055672;28;20052;-58
2024/04/07 11:13:55;;;;;;;7.60;1.35;;;;;;;;;;5055670;28;20124;-60
2024/04/07 11:16:21;;;;;;;9.25;1.48;;;;;;;;;;5055912;28;20020;-59
2024/04/07 11:18:46;;;;;;;11.27;1.60;;;;;;;;;;5055624;28;20021;-55
2024/04/07 11:21:12;;;;;;;13.45;2.58;;;;;;;;;;5055916;28;20077;-57
2024/04/07 11:23:38;;;;;;;5.10;1.40;;;;;;;;;;5056524;28;20068;-57
2024/04/07 11:26:03;;;;;;;7.40;1.60;;;;;;;;;;5055719;28;20507;-57
2024/04/07 11:28:29;;;;;;;6.53;1.60;;;;;;;;;;5055806;28;20025;-54
2024/04/07 11:30:57;;;;;;;5.03;1.30;;;;;;;;;;5055340;28;20103;-57
2024/04/07 11:33:25;;;;;;;8.35;1.70;;;;;;;;;;5055471;28;20029;-58
2024/04/07 11:35:52;;;;;;;4.03;1.50;;;;;;;;;;5055448;28;20027;-58
2024/04/07 11:38:18;;;;;;;5.30;1.55;;;;;;;;;;5055511;28;20076;-58
2024/04/07 11:40:43;;;;;;;8.90;1.80;;;;;;;;;;5055518;28;20017;-57
2024/04/07 11:43:08;;;;;;;6.47;1.83;;;;;;;;;;5055175;28;20469;-57
2024/04/07 11:45:33;;;;;;;6.93;1.83;;;;;;;;;;5055326;28;20029;-57
2024/04/07 11:47:59;;;;;;;7.43;1.85;;;;;;;;;;5055343;28;20024;-58
2024/04/07 11:50:25;;;;;;;6.88;1.60;;;;;;;;;;5055291;28;20021;-59
2024/04/07 11:52:50;;;;;;;4.47;1.38;;;;;;;;;;5054996;28;20378;-58
2024/04/07 11:55:15;;;;;;;8.23;1.90;;;;;;;;;;5055212;28;20032;-57
2024/04/07 11:57:41;;;;;;;4.10;1.27;;;;;;;;;;5055519;28;20012;-57
2024/04/07 12:00:09;;;;;;;3.60;1.15;;;;;;;;;;5054224;28;20024;-58
2024/04/07 12:02:35;;;;;;;5.70;1.60;;;;;;;;;;5054981;28;20028;-58
2024/04/07 12:05:01;;;;;;;5.65;1.48;;;;;;;;;;5054844;28;20021;-58
2024/04/07 12:07:27;;;;;;;8.25;1.92;;;;;;;;;;5055325;28;20395;-57
2024/04/07 12:09:52;;;;;;;5.85;1.27;;;;;;;;;;5054970;28;20048;-57
2024/04/07 12:12:17;;;;;;;7.18;1.27;;;;;;;;;;5054901;28;20047;-57
2024/04/07 12:14:42;;;;;;;3.85;1.23;;;;;;;;;;5054843;28;20031;-56
2024/04/07 12:17:07;;;;;;;3.08;0.98;;;;;;;;;;5054636;28;20021;-57
2024/04/07 12:19:33;;;;;;;4.85;1.30;;;;;;;;;;5054769;28;20446;-55
2024/04/07 12:21:58;;;;;;;4.80;1.10;;;;;;;;;;5054756;28;20086;-58
2024/04/07 12:24:24;;;;;;;7.00;1.10;;;;;;;;;;5055054;28;20013;-57
2024/04/07 12:26:52;;;;;;;4.57;1.30;;;;;;;;;;5054640;28;20074;-57
2024/04/07 12:29:18;;;;;;;3.80;1.00;;;;;;;;;;5054731;28;20021;-57
2024/04/07 12:31:43;;;;;;;5.07;1.20;;;;;;;;;;5054709;28;20040;-58
2024/04/07 12:34:08;;;;;;;4.75;1.20;;;;;;;;;;5054588;28;20021;-58
2024/04/07 12:36:33;;;;;;;5.43;1.27;;;;;;;;;;5054982;28;20104;-57
2024/04/07 12:39:05;;;;;;;6.28;1.35;;;;;;;;;;5054627;28;20021;-56
2024/04/07 12:41:32;;;;;;;6.40;1.40;;;;;;;;;;5054768;28;20023;-57
2024/04/07 12:43:58;;;;;;;5.07;1.25;;;;;;;;;;5054617;28;20029;-57
2024/04/07 12:46:23;;;;;;;3.72;1.20;;;;;;;;;;5054589;28;20029;-57
2024/04/07 12:48:48;;;;;;;6.13;1.50;;;;;;;;;;5058311;28;20016;-57
2024/04/07 12:51:13;;;;;;;4.15;1.23;;;;;;;;;;5058669;28;20032;-58
2024/04/07 12:53:39;;;;;;;4.18;1.38;;;;;;;;;;5058341;28;20028;-57
2024/04/07 12:56:04;;;;;;;4.43;1.50;;;;;;;;;;5058709;28;20021;-55
2024/04/07 12:58:29;;;;;;;4.30;1.25;;;;;;;;;;5057676;28;20256;-56
2024/04/07 13:00:55;;;;;;;3.30;1.20;;;;;;;;;;5058203;28;20036;-56
2024/04/07 13:03:20;;;;;;;4.43;1.33;;;;;;;;;;5058684;28;20454;-56
2024/04/07 13:05:45;;;;;;;4.80;1.33;;;;;;;;;;5058140;28;20017;-56
2024/04/07 13:08:10;;;;;;;6.78;1.48;;;;;;;;;;5058601;28;20145;-56
2024/04/07 13:10:36;;;;;;;5.35;1.50;;;;;;;;;;5058110;28;20096;-57
2024/04/07 13:13:01;;;;;;;4.43;1.45;;;;;;;;;;5058203;28;20108;-57
2024/04/07 13:15:26;;;;;;;6.28;1.45;;;;;;;;;;5057850;28;20079;-56
2024/04/07 13:17:51;;;;;;;4.20;1.40;;;;;;;;;;5058040;28;20025;-55
2024/04/07 13:20:16;;;;;;;3.20;1.40;;;;;;;;;;5057813;28;20017;-55
2024/04/07 13:22:43;;;;;;;4.63;1.35;;;;;;;;;;5058059;28;20037;-57
2024/04/07 13:25:08;;;;;;;3.97;1.35;;;;;;;;;;5058032;28;20025;-56
2024/04/07 13:27:33;;;;;;;5.63;1.58;;;;;;;;;;5057796;28;20112;-57
2024/04/07 13:29:59;;;;;;;9.07;1.48;;;;;;;;;;5058070;28;20025;-57
2024/04/07 13:32:25;;;;;;;4.88;1.55;;;;;;;;;;5058015;28;20083;-58
2024/04/07 13:34:50;;;;;;;6.40;1.83;;;;;;;;;;5057767;28;20024;-56
2024/04/07 13:37:16;;;;;;;6.57;1.65;;;;;;;;;;5057469;28;20066;-57
2024/04/07 13:39:41;;;;;;;8.18;1.98;;;;;;;;;;5057711;28;20025;-56
2024/04/07 13:42:06;;;;;;;8.82;2.33;;;;;;;;;;5057580;28;20029;-56
2024/04/07 13:44:31;;;;;;;5.22;1.52;;;;;;;;;;5058121;28;20434;-55
2024/04/07 13:46:57;;;;;;;6.50;1.40;;;;;;;;;;5057448;28;20025;-56
2024/04/07 13:49:22;;;;;;;13.43;1.90;;;;;;;;;;5057511;28;20036;-55
2024/04/07 13:51:47;;;;;;;4.40;1.23;;;;;;;;;;5057421;28;20016;-55
2024/04/07 13:54:12;;;;;;;5.75;1.70;;;;;;;;;;5057417;28;20095;-57
2024/04/07 13:56:38;;;;;;;7.15;1.73;;;;;;;;;;5057344;28;20323;-58
2024/04/07 13:59:04;;;;;;;5.40;1.40;;;;;;;;;;5056960;28;20056;-57
2024/04/07 14:01:30;;;;;;;6.90;1.60;;;;;;;;;;5057269;28;20033;-58
2024/04/07 14:03:55;;;;;;;5.93;1.90;;;;;;;;;;5057465;28;20027;-57
2024/04/07 14:06:20;;;;;;;6.97;1.58;;;;;;;;;;5057319;28;20014;-57
2024/04/07 14:08:49;;;;;;;7.20;1.55;;;;;;;;;;5057166;28;20013;-57
2024/04/07 14:11:15;;;;;;;5.50;1.80;;;;;;;;;;5057140;28;20027;-56
2024/04/07 14:13:41;;;;;;;8.85;4.38;;;;;;;;;;5057119;28;20078;-55
2024/04/07 14:16:06;;;;;;;5.68;1.88;;;;;;;;;;5057390;28;20021;-54
2024/04/07 14:18:31;;;;;;;5.78;1.30;;;;;;;;;;5057336;28;20096;-54
2024/04/07 14:20:57;;;;;;;5.45;1.13;;;;;;;;;;5057354;28;20040;-55
2024/04/07 14:23:22;;;;;;;7.05;2.00;;;;;;;;;;5057010;28;20456;-57
2024/04/07 14:25:47;;;;;;;5.40;1.58;;;;;;;;;;5056954;28;20510;-53
2024/04/07 14:28:12;;;;;;;7.88;1.70;;;;;;;;;;5056706;28;20450;-53
2024/04/07 14:30:37;;;;;;;5.25;1.70;;;;;;;;;;5056808;28;20104;-56
2024/04/07 14:33:03;;;;;;;6.47;1.60;;;;;;;;;;5056567;28;20025;-57
2024/04/07 14:35:29;;;;;;;5.20;1.50;;;;;;;;;;5056631;28;20032;-55